Terminal Aerodrome Forecast
Issued by NWS

Home | Current Version | Previous Version | Text Only | Print | Product List | Glossary On
Versions: 1 2 3 4 5 6 7 8 9 10 11 12 13
000
FTUS42 KMLB 252343
TAFSUA
TAF
KSUA 252343Z 2600/2624 13005KT P6SM FEW250
     FM261300 15007KT P6SM SCT025 SCT250
     FM261630 11011KT P6SM VCTS BKN035CB
     FM262000 12010KT P6SM SCT035 BKN150=

USA.gov is the U.S. government's official web portal to all federal, state and local government web resources and services.